createdAt,value
2018-06-14T00:00:33.160Z,0
2018-06-14T00:01:33.155Z,0
2018-06-14T00:02:33.162Z,0
2018-06-14T00:03:33.225Z,0
2018-06-14T00:04:33.177Z,0
2018-06-14T00:05:33.217Z,0
2018-06-14T00:06:33.147Z,0
2018-06-14T00:07:33.217Z,0
2018-06-14T00:08:33.182Z,0
2018-06-14T00:09:33.155Z,0
2018-06-14T00:10:33.194Z,0
2018-06-14T00:11:33.158Z,0
2018-06-14T00:12:33.182Z,0
2018-06-14T00:13:33.121Z,0
2018-06-14T00:14:33.185Z,0
2018-06-14T00:15:33.104Z,0
2018-06-14T00:16:33.192Z,0
2018-06-14T00:17:33.190Z,0
2018-06-14T00:18:33.134Z,0
2018-06-14T00:19:33.189Z,0
2018-06-14T00:20:33.207Z,0
2018-06-14T00:21:33.231Z,0
2018-06-14T00:22:33.216Z,0
2018-06-14T00:23:33.154Z,0
2018-06-14T00:24:33.259Z,0
2018-06-14T00:25:33.239Z,0
2018-06-14T00:26:33.208Z,0
2018-06-14T00:27:33.145Z,0
2018-06-14T00:28:33.269Z,0
2018-06-14T00:29:33.204Z,0
2018-06-14T00:30:33.213Z,0
2018-06-14T00:31:33.162Z,0
2018-06-14T00:32:33.149Z,0
2018-06-14T00:33:33.259Z,0
2018-06-14T00:34:33.286Z,0
2018-06-14T00:35:33.214Z,0
2018-06-14T00:36:33.247Z,0
2018-06-14T00:37:33.178Z,0
2018-06-14T00:38:33.248Z,0
2018-06-14T00:39:33.178Z,0
2018-06-14T00:40:33.185Z,0
2018-06-14T00:41:33.181Z,0
2018-06-14T00:42:33.186Z,0
2018-06-14T00:43:33.181Z,0
2018-06-14T00:44:33.252Z,0
2018-06-14T00:45:33.182Z,0
2018-06-14T00:46:33.285Z,0
2018-06-14T00:47:33.194Z,0
2018-06-14T00:48:33.190Z,0
2018-06-14T00:49:33.226Z,0
2018-06-14T00:50:33.174Z,0
2018-06-14T00:51:33.155Z,0
2018-06-14T00:52:33.177Z,0
2018-06-14T00:53:33.295Z,0
2018-06-14T00:54:33.273Z,0
2018-06-14T00:55:33.201Z,0
2018-06-14T00:56:33.194Z,0
2018-06-14T00:57:33.198Z,0
2018-06-14T00:58:33.189Z,0
2018-06-14T00:59:33.231Z,0
2018-06-14T01:00:33.269Z,0
2018-06-14T01:01:33.197Z,0
2018-06-14T01:02:33.193Z,0
2018-06-14T01:03:33.197Z,0
2018-06-14T01:04:33.194Z,0
2018-06-14T01:05:33.209Z,0
2018-06-14T01:06:33.239Z,0
2018-06-14T01:07:33.231Z,0
2018-06-14T01:08:33.277Z,0
2018-06-14T01:09:33.166Z,0
2018-06-14T01:10:33.185Z,0
2018-06-14T01:11:33.233Z,0
2018-06-14T01:12:33.306Z,0
2018-06-14T01:13:33.264Z,0
2018-06-14T01:14:33.267Z,0
2018-06-14T01:15:33.280Z,0
2018-06-14T01:16:33.236Z,0
2018-06-14T01:17:33.269Z,0
2018-06-14T01:18:33.271Z,0
2018-06-14T01:19:33.270Z,0
2018-06-14T01:20:33.274Z,0
2018-06-14T01:21:33.294Z,0
2018-06-14T01:22:33.276Z,0
2018-06-14T01:23:33.292Z,0
2018-06-14T01:24:33.303Z,0
2018-06-14T01:25:33.181Z,0
2018-06-14T01:26:33.243Z,0
2018-06-14T01:27:33.178Z,0
2018-06-14T01:28:33.278Z,0
2018-06-14T01:29:33.183Z,0
2018-06-14T01:30:33.178Z,0
2018-06-14T01:31:33.260Z,0
2018-06-14T01:32:33.279Z,0
2018-06-14T01:33:33.248Z,0
2018-06-14T01:34:33.183Z,0
2018-06-14T01:35:33.361Z,0
2018-06-14T01:36:33.249Z,0
2018-06-14T01:37:33.248Z,0
2018-06-14T01:38:33.318Z,0
2018-06-14T01:39:33.285Z,0
2018-06-14T01:40:33.346Z,0
2018-06-14T01:41:33.212Z,0
2018-06-14T01:42:33.289Z,0
2018-06-14T01:43:33.255Z,0
2018-06-14T01:44:33.323Z,0
2018-06-14T01:45:33.327Z,0
2018-06-14T01:46:33.291Z,0
2018-06-14T01:47:33.227Z,0
2018-06-14T01:48:33.292Z,0
2018-06-14T01:49:33.293Z,0
2018-06-14T01:50:33.225Z,0
2018-06-14T01:51:33.229Z,0
2018-06-14T01:52:33.297Z,0
2018-06-14T01:53:33.302Z,0
2018-06-14T01:54:33.332Z,0
2018-06-14T01:55:33.367Z,0
2018-06-14T01:56:33.220Z,0
2018-06-14T01:57:33.300Z,0
2018-06-14T01:58:33.284Z,0
2018-06-14T01:59:33.219Z,0
2018-06-14T02:00:33.289Z,0
2018-06-14T02:01:33.297Z,0
2018-06-14T02:02:33.218Z,0
2018-06-14T02:03:33.167Z,0
2018-06-14T02:04:33.256Z,0
2018-06-14T02:05:33.300Z,0
2018-06-14T02:06:33.338Z,0
2018-06-14T02:07:33.270Z,0
2018-06-14T02:08:33.264Z,0
2018-06-14T02:09:33.234Z,0
2018-06-14T02:10:33.265Z,0
2018-06-14T02:11:33.207Z,0
2018-06-14T02:12:33.226Z,0
2018-06-14T02:13:33.329Z,0
2018-06-14T02:14:33.309Z,0
2018-06-14T02:15:33.304Z,0
2018-06-14T02:16:33.333Z,0
2018-06-14T02:17:33.233Z,0
2018-06-14T02:18:33.293Z,0
2018-06-14T02:19:33.315Z,0
2018-06-14T02:20:33.351Z,0
2018-06-14T02:21:33.213Z,0
2018-06-14T02:22:33.314Z,0
2018-06-14T02:23:33.239Z,0
2018-06-14T02:24:33.316Z,0
2018-06-14T02:25:33.340Z,0
2018-06-14T02:26:33.187Z,0
2018-06-14T02:27:33.171Z,0
2018-06-14T02:28:33.304Z,0
2018-06-14T02:29:33.213Z,0
2018-06-14T02:30:33.219Z,0
2018-06-14T02:31:33.300Z,0
2018-06-14T02:32:33.218Z,0
2018-06-14T02:33:33.226Z,0
2018-06-14T02:34:33.223Z,0
2018-06-14T02:35:33.216Z,0
2018-06-14T02:36:33.242Z,0
2018-06-14T02:37:33.236Z,0
2018-06-14T02:38:33.225Z,0
2018-06-14T02:39:33.337Z,0
2018-06-14T02:40:33.294Z,0
2018-06-14T02:41:33.240Z,0
2018-06-14T02:42:33.270Z,0
2018-06-14T02:43:33.234Z,0
2018-06-14T02:44:33.424Z,0
2018-06-14T02:45:33.269Z,0
2018-06-14T02:46:33.372Z,0
2018-06-14T02:47:33.333Z,0
2018-06-14T02:48:33.335Z,0
2018-06-14T02:49:33.307Z,0
2018-06-14T02:50:33.314Z,0
2018-06-14T02:51:33.392Z,0
2018-06-14T02:52:33.352Z,0
2018-06-14T02:53:33.368Z,0
2018-06-14T02:54:33.277Z,0
2018-06-14T02:55:33.279Z,0
2018-06-14T02:56:33.256Z,0
2018-06-14T02:57:33.330Z,0
2018-06-14T02:58:33.332Z,0
2018-06-14T02:59:33.333Z,0
2018-06-14T03:00:33.261Z,0
2018-06-14T03:01:33.261Z,0
2018-06-14T03:02:33.246Z,0
2018-06-14T03:03:33.249Z,0
2018-06-14T03:04:33.220Z,0
2018-06-14T03:05:33.268Z,0
2018-06-14T03:06:33.377Z,0
2018-06-14T03:07:33.309Z,0
2018-06-14T03:08:33.367Z,0
2018-06-14T03:09:33.371Z,0
2018-06-14T03:10:33.325Z,0
2018-06-14T03:11:33.285Z,0
2018-06-14T03:12:33.308Z,0
2018-06-14T03:13:33.348Z,0
2018-06-14T03:14:33.393Z,0
2018-06-14T03:15:33.316Z,0
2018-06-14T03:16:33.257Z,0
2018-06-14T03:17:33.276Z,0
2018-06-14T03:18:33.343Z,0
2018-06-14T03:19:33.347Z,0
2018-06-14T03:20:33.300Z,0
2018-06-14T03:21:33.240Z,0
2018-06-14T03:22:33.258Z,0
2018-06-14T03:23:33.262Z,0
2018-06-14T03:24:33.345Z,0
2018-06-14T03:25:33.257Z,0
2018-06-14T03:26:33.360Z,0
2018-06-14T03:27:33.293Z,0
2018-06-14T03:28:33.366Z,0
2018-06-14T03:29:33.296Z,0
2018-06-14T03:30:33.375Z,0
2018-06-14T03:31:33.323Z,0
2018-06-14T03:32:33.294Z,0
2018-06-14T03:33:33.293Z,0
2018-06-14T03:34:33.361Z,0
2018-06-14T03:35:33.363Z,0
2018-06-14T03:36:33.314Z,0
2018-06-14T03:37:33.343Z,0
2018-06-14T03:38:33.300Z,0
2018-06-14T03:39:33.316Z,0
2018-06-14T03:40:33.352Z,0
2018-06-14T03:41:33.306Z,0
2018-06-14T03:42:33.270Z,0
2018-06-14T03:43:33.352Z,17
2018-06-14T03:44:33.360Z,19
2018-06-14T03:45:33.317Z,21
2018-06-14T03:46:33.362Z,22
2018-06-14T03:47:33.323Z,24
2018-06-14T03:48:33.397Z,26
2018-06-14T03:49:33.325Z,28
2018-06-14T03:50:33.390Z,27
2018-06-14T03:51:33.347Z,29
2018-06-14T03:52:33.397Z,30
2018-06-14T03:53:33.279Z,34
2018-06-14T03:54:33.295Z,35
2018-06-14T03:55:33.334Z,35
2018-06-14T03:56:33.387Z,34
2018-06-14T03:57:33.310Z,31
2018-06-14T03:58:33.309Z,32
2018-06-14T03:59:33.376Z,32
2018-06-14T04:00:33.299Z,30
2018-06-14T04:01:33.339Z,31
2018-06-14T04:02:33.308Z,29
2018-06-14T04:03:33.377Z,28
2018-06-14T04:04:33.310Z,26
2018-06-14T04:05:33.380Z,25
2018-06-14T04:06:33.314Z,23
2018-06-14T04:07:33.397Z,23
2018-06-14T04:08:33.380Z,23
2018-06-14T04:09:33.386Z,23
2018-06-14T04:10:33.319Z,24
2018-06-14T04:11:33.289Z,26
2018-06-14T04:12:33.325Z,28
2018-06-14T04:13:33.386Z,31
2018-06-14T04:14:33.388Z,34
2018-06-14T04:15:33.322Z,30
2018-06-14T04:16:33.377Z,35
2018-06-14T04:17:33.388Z,41
2018-06-14T04:18:33.364Z,43
2018-06-14T04:19:33.293Z,45
2018-06-14T04:20:33.357Z,48
2018-06-14T04:21:33.279Z,49
2018-06-14T04:22:33.293Z,48
2018-06-14T04:23:33.279Z,50
2018-06-14T04:24:33.294Z,53
2018-06-14T04:25:33.299Z,57
2018-06-14T04:26:33.371Z,60
2018-06-14T04:27:33.462Z,63
2018-06-14T04:28:33.422Z,63
2018-06-14T04:29:33.423Z,65
2018-06-14T04:30:33.321Z,68
2018-06-14T04:31:33.369Z,72
2018-06-14T04:32:33.397Z,78
2018-06-14T04:33:33.355Z,84
2018-06-14T04:34:33.471Z,89
2018-06-14T04:35:33.321Z,94
2018-06-14T04:36:33.377Z,97
2018-06-14T04:37:33.360Z,99
2018-06-14T04:38:33.422Z,102
2018-06-14T04:39:33.376Z,105
2018-06-14T04:40:33.423Z,108
2018-06-14T04:41:33.363Z,110
2018-06-14T04:42:33.310Z,112
2018-06-14T04:43:33.368Z,114
2018-06-14T04:44:33.304Z,117
2018-06-14T04:45:33.374Z,119
2018-06-14T04:46:33.312Z,120
2018-06-14T04:47:33.404Z,120
2018-06-14T04:48:33.433Z,121
2018-06-14T04:49:33.351Z,121
2018-06-14T04:50:33.444Z,120
2018-06-14T04:51:33.440Z,118
2018-06-14T04:52:33.426Z,120
2018-06-14T04:53:33.468Z,123
2018-06-14T04:54:33.416Z,124
2018-06-14T04:55:33.335Z,125
2018-06-14T04:56:33.415Z,125
2018-06-14T04:57:33.352Z,127
2018-06-14T04:58:33.362Z,126
2018-06-14T04:59:33.414Z,125
2018-06-14T05:00:33.418Z,120
2018-06-14T05:01:33.406Z,119
2018-06-14T05:02:33.355Z,118
2018-06-14T05:03:33.350Z,118
2018-06-14T05:04:33.419Z,120
2018-06-14T05:05:33.360Z,121
2018-06-14T05:06:33.389Z,122
2018-06-14T05:07:33.449Z,122
2018-06-14T05:08:33.444Z,124
2018-06-14T05:09:33.328Z,125
2018-06-14T05:10:33.387Z,118
2018-06-14T05:11:33.369Z,118
2018-06-14T05:12:33.383Z,128
2018-06-14T05:13:33.335Z,135
2018-06-14T05:14:33.388Z,143
2018-06-14T05:15:33.399Z,146
2018-06-14T05:16:33.319Z,148
2018-06-14T05:17:33.388Z,151
2018-06-14T05:18:33.409Z,153
2018-06-14T05:19:33.322Z,155
2018-06-14T05:20:33.396Z,155
2018-06-14T05:21:33.320Z,156
2018-06-14T05:22:33.324Z,154
2018-06-14T05:23:33.372Z,156
2018-06-14T05:24:33.366Z,160
2018-06-14T05:25:33.326Z,163
2018-06-14T05:26:33.417Z,167
2018-06-14T05:27:33.398Z,167
2018-06-14T05:28:33.408Z,170
2018-06-14T05:29:33.518Z,170
2018-06-14T05:30:33.461Z,173
2018-06-14T05:31:33.438Z,178
2018-06-14T05:32:33.459Z,179
2018-06-14T05:33:33.341Z,180
2018-06-14T05:34:33.410Z,179
2018-06-14T05:35:33.440Z,183
2018-06-14T05:36:33.371Z,190
2018-06-14T05:37:33.443Z,190
2018-06-14T05:38:33.448Z,194
2018-06-14T05:39:33.376Z,202
2018-06-14T05:40:33.445Z,205
2018-06-14T05:41:33.442Z,211
2018-06-14T05:42:33.472Z,219
2018-06-14T05:43:33.380Z,228
2018-06-14T05:44:33.459Z,233
2018-06-14T05:45:33.441Z,232
2018-06-14T05:46:33.400Z,227
2018-06-14T05:47:33.398Z,220
2018-06-14T05:48:33.337Z,216
2018-06-14T05:49:33.387Z,215
2018-06-14T05:50:33.433Z,215
2018-06-14T05:51:33.446Z,214
2018-06-14T05:52:33.448Z,211
2018-06-14T05:53:33.340Z,214
2018-06-14T05:54:33.445Z,218
2018-06-14T05:55:33.386Z,216
2018-06-14T05:56:33.472Z,211
2018-06-14T05:57:33.431Z,210
2018-06-14T05:58:33.379Z,212
2018-06-14T05:59:33.393Z,223
2018-06-14T06:00:33.457Z,228
2018-06-14T06:01:33.459Z,231
2018-06-14T06:02:33.400Z,233
2018-06-14T06:03:33.424Z,232
2018-06-14T06:04:33.426Z,222
2018-06-14T06:05:33.505Z,212
2018-06-14T06:06:33.423Z,213
2018-06-14T06:07:33.496Z,220
2018-06-14T06:08:33.430Z,222
2018-06-14T06:09:33.369Z,225
2018-06-14T06:10:33.418Z,229
2018-06-14T06:11:33.501Z,225
2018-06-14T06:12:33.436Z,217
2018-06-14T06:13:33.494Z,205
2018-06-14T06:14:33.437Z,192
2018-06-14T06:15:33.446Z,185
2018-06-14T06:16:33.502Z,180
2018-06-14T06:17:33.450Z,179
2018-06-14T06:18:33.390Z,185
2018-06-14T06:19:33.440Z,196
2018-06-14T06:20:33.491Z,201
2018-06-14T06:21:33.413Z,197
2018-06-14T06:22:33.429Z,191
2018-06-14T06:23:33.462Z,193
2018-06-14T06:24:33.452Z,136
2018-06-14T06:25:33.469Z,150
2018-06-14T06:26:33.510Z,167
2018-06-14T06:27:33.477Z,160
2018-06-14T06:28:33.410Z,151
2018-06-14T06:29:33.408Z,139
2018-06-14T06:30:33.475Z,151
2018-06-14T06:31:33.412Z,213
2018-06-14T06:32:33.409Z,229
2018-06-14T06:33:33.481Z,226
2018-06-14T06:34:33.413Z,256
2018-06-14T06:35:33.478Z,282
2018-06-14T06:36:33.487Z,326
2018-06-14T06:37:33.467Z,331
2018-06-14T06:38:33.469Z,337
2018-06-14T06:39:33.472Z,344
2018-06-14T06:40:33.387Z,329
2018-06-14T06:41:33.418Z,345
2018-06-14T06:42:33.473Z,336
2018-06-14T06:43:33.480Z,339
2018-06-14T06:44:33.352Z,385
2018-06-14T06:45:33.440Z,391
2018-06-14T06:46:33.358Z,378
2018-06-14T06:47:33.422Z,373
2018-06-14T06:48:33.493Z,371
2018-06-14T06:49:33.425Z,390
2018-06-14T06:50:33.491Z,398
2018-06-14T06:51:33.494Z,396
2018-06-14T06:52:33.495Z,447
2018-06-14T06:53:33.493Z,452
2018-06-14T06:54:33.429Z,490
2018-06-14T06:55:33.494Z,498
2018-06-14T06:56:33.428Z,503
2018-06-14T06:57:33.428Z,504
2018-06-14T06:58:33.528Z,502
2018-06-14T06:59:33.432Z,482
2018-06-14T07:00:33.389Z,476
2018-06-14T07:01:33.499Z,528
2018-06-14T07:02:33.432Z,547
2018-06-14T07:03:33.534Z,547
2018-06-14T07:04:33.537Z,557
2018-06-14T07:05:33.497Z,549
2018-06-14T07:06:33.447Z,573
2018-06-14T07:07:33.488Z,579
2018-06-14T07:08:33.389Z,582
2018-06-14T07:09:33.435Z,608
2018-06-14T07:10:33.493Z,596
2018-06-14T07:11:33.441Z,626
2018-06-14T07:12:33.489Z,629
2018-06-14T07:13:33.415Z,639
2018-06-14T07:14:33.458Z,648
2018-06-14T07:15:33.500Z,649
2018-06-14T07:16:33.378Z,650
2018-06-14T07:17:33.444Z,659
2018-06-14T07:18:33.442Z,656
2018-06-14T07:19:33.449Z,649
2018-06-14T07:20:33.510Z,643
2018-06-14T07:21:33.492Z,721
2018-06-14T07:22:33.448Z,714
2018-06-14T07:23:33.511Z,718
2018-06-14T07:24:33.453Z,739
2018-06-14T07:25:33.519Z,745
2018-06-14T07:26:33.477Z,694
2018-06-14T07:27:33.462Z,757
2018-06-14T07:28:33.493Z,766
2018-06-14T07:29:33.485Z,772
2018-06-14T07:30:33.494Z,776
2018-06-14T07:31:33.418Z,776
2018-06-14T07:32:33.517Z,781
2018-06-14T07:33:33.475Z,779
2018-06-14T07:34:33.498Z,787
2018-06-14T07:35:33.441Z,781
2018-06-14T07:36:33.420Z,781
2018-06-14T07:37:33.409Z,579
2018-06-14T07:38:33.427Z,760
2018-06-14T07:39:33.527Z,764
2018-06-14T07:40:33.524Z,714
2018-06-14T07:41:33.426Z,749
2018-06-14T07:42:33.454Z,728
2018-06-14T07:43:33.429Z,802
2018-06-14T07:44:33.521Z,797
2018-06-14T07:45:33.457Z,799
2018-06-14T07:46:33.434Z,802
2018-06-14T07:47:33.391Z,755
2018-06-14T07:48:33.476Z,837
2018-06-14T07:49:33.435Z,811
2018-06-14T07:50:33.388Z,827
2018-06-14T07:51:33.477Z,833
2018-06-14T07:52:33.427Z,839
2018-06-14T07:53:33.485Z,879
2018-06-14T07:54:33.439Z,876
2018-06-14T07:55:33.386Z,867
2018-06-14T07:56:33.483Z,897
2018-06-14T07:57:33.472Z,894
2018-06-14T07:58:33.535Z,913
2018-06-14T07:59:33.537Z,922
2018-06-14T08:00:33.503Z,891
2018-06-14T08:01:33.558Z,773
2018-06-14T08:02:33.508Z,910
2018-06-14T08:03:33.510Z,893
2018-06-14T08:04:33.448Z,895
2018-06-14T08:05:33.445Z,949
2018-06-14T08:06:33.529Z,881
2018-06-14T08:07:33.571Z,928
2018-06-14T08:08:33.474Z,952
2018-06-14T08:09:33.539Z,964
2018-06-14T08:10:33.541Z,1011
2018-06-14T08:11:33.474Z,944
2018-06-14T08:12:33.477Z,1018
2018-06-14T08:13:33.545Z,985
2018-06-14T08:14:33.543Z,1031
2018-06-14T08:15:33.482Z,1034
2018-06-14T08:16:33.476Z,913
2018-06-14T08:17:33.471Z,393
2018-06-14T08:18:33.503Z,431
2018-06-14T08:19:33.563Z,441
2018-06-14T08:20:33.518Z,385
2018-06-14T08:21:33.452Z,389
2018-06-14T08:22:33.458Z,442
2018-06-14T08:23:33.578Z,390
2018-06-14T08:24:33.585Z,389
2018-06-14T08:25:33.574Z,402
2018-06-14T08:26:33.475Z,402
2018-06-14T08:27:33.575Z,437
2018-06-14T08:28:33.523Z,1100
2018-06-14T08:29:33.581Z,1084
2018-06-14T08:30:33.577Z,964
2018-06-14T08:31:33.605Z,550
2018-06-14T08:32:33.581Z,579
2018-06-14T08:33:33.579Z,491
2018-06-14T08:34:33.507Z,439
2018-06-14T08:35:33.583Z,441
2018-06-14T08:36:33.524Z,450
2018-06-14T08:37:33.563Z,1107
2018-06-14T08:38:33.495Z,989
2018-06-14T08:39:33.559Z,1191
2018-06-14T08:40:33.497Z,616
2018-06-14T08:41:33.494Z,479
2018-06-14T08:42:33.562Z,815
2018-06-14T08:43:33.493Z,1263
2018-06-14T08:44:33.566Z,1251
2018-06-14T08:45:33.569Z,1221
2018-06-14T08:46:33.503Z,1207
2018-06-14T08:47:33.490Z,630
2018-06-14T08:48:33.549Z,469
2018-06-14T08:49:33.490Z,583
2018-06-14T08:50:33.544Z,469
2018-06-14T08:51:33.541Z,425
2018-06-14T08:52:33.605Z,434
2018-06-14T08:53:33.599Z,458
2018-06-14T08:54:33.575Z,853
2018-06-14T08:55:33.547Z,1061
2018-06-14T08:56:33.539Z,841
2018-06-14T08:57:33.498Z,512
2018-06-14T08:58:33.575Z,401
2018-06-14T08:59:33.573Z,405
2018-06-14T09:00:33.510Z,462
2018-06-14T09:01:33.580Z,759
2018-06-14T09:02:33.579Z,1352
2018-06-14T09:03:33.514Z,1312
2018-06-14T09:04:33.574Z,1063
2018-06-14T09:05:33.577Z,1285
2018-06-14T09:06:33.579Z,1304
2018-06-14T09:07:33.520Z,1305
2018-06-14T09:08:33.580Z,1298
2018-06-14T09:09:33.514Z,1289
2018-06-14T09:10:33.514Z,1299
2018-06-14T09:11:33.589Z,1041
2018-06-14T09:12:33.515Z,425
2018-06-14T09:13:33.518Z,410
2018-06-14T09:14:33.522Z,393
2018-06-14T09:15:33.585Z,440
2018-06-14T09:16:33.587Z,414
2018-06-14T09:17:33.579Z,368
2018-06-14T09:18:33.513Z,368
2018-06-14T09:19:33.581Z,383
2018-06-14T09:20:33.494Z,415
2018-06-14T09:21:33.573Z,651
2018-06-14T09:22:33.582Z,1301
2018-06-14T09:23:33.524Z,639
2018-06-14T09:24:33.523Z,497
2018-06-14T09:25:33.583Z,416
2018-06-14T09:26:33.463Z,393
2018-06-14T09:27:33.575Z,389
2018-06-14T09:28:33.567Z,387
2018-06-14T09:29:33.620Z,366
2018-06-14T09:30:33.495Z,372
2018-06-14T09:31:33.619Z,393
2018-06-14T09:32:33.492Z,571
2018-06-14T09:33:33.578Z,501
2018-06-14T09:34:33.598Z,463
2018-06-14T09:35:33.619Z,421
2018-06-14T09:36:33.551Z,385
2018-06-14T09:37:33.636Z,383
2018-06-14T09:38:33.598Z,413
2018-06-14T09:39:33.570Z,1237
2018-06-14T09:40:33.571Z,1196
2018-06-14T09:41:33.598Z,1139
2018-06-14T09:42:33.609Z,1162
2018-06-14T09:43:33.616Z,1115
2018-06-14T09:44:33.523Z,1120
2018-06-14T09:45:33.631Z,1178
2018-06-14T09:46:33.668Z,1153
2018-06-14T09:47:33.604Z,1185
2018-06-14T09:48:33.516Z,1180
2018-06-14T09:49:33.604Z,1198
2018-06-14T09:50:33.515Z,843
2018-06-14T09:51:33.641Z,467
2018-06-14T09:52:33.520Z,387
2018-06-14T09:53:33.534Z,1095
2018-06-14T09:54:33.571Z,1231
2018-06-14T09:55:33.612Z,370
2018-06-14T09:56:33.514Z,369
2018-06-14T09:57:33.551Z,385
2018-06-14T09:58:33.633Z,402
2018-06-14T09:59:33.576Z,505
2018-06-14T10:00:33.639Z,518
2018-06-14T10:01:33.560Z,499
2018-06-14T10:02:33.648Z,876
2018-06-14T10:03:33.541Z,485
2018-06-14T10:04:33.524Z,708
2018-06-14T10:05:33.579Z,422
2018-06-14T10:06:33.655Z,408
2018-06-14T10:07:33.657Z,411
2018-06-14T10:08:33.562Z,1158
2018-06-14T10:09:33.553Z,1274
2018-06-14T10:10:33.559Z,607
2018-06-14T10:11:33.555Z,1053
2018-06-14T10:12:33.586Z,743
2018-06-14T10:13:33.621Z,515
2018-06-14T10:14:33.560Z,1341
2018-06-14T10:15:33.647Z,541
2018-06-14T10:16:33.560Z,491
2018-06-14T10:17:33.559Z,483
2018-06-14T10:18:33.551Z,551
2018-06-14T10:19:33.494Z,477
2018-06-14T10:20:33.507Z,907
2018-06-14T10:21:33.538Z,611
2018-06-14T10:22:33.447Z,530
2018-06-14T10:23:33.531Z,586
2018-06-14T10:24:33.455Z,676
2018-06-14T10:25:33.505Z,1221
2018-06-14T10:26:33.497Z,1243
2018-06-14T10:27:33.576Z,1205
2018-06-14T10:28:33.569Z,1185
2018-06-14T10:29:33.571Z,344
2018-06-14T10:30:33.532Z,511
2018-06-14T10:31:33.635Z,1247
2018-06-14T10:32:33.587Z,639
2018-06-14T10:33:33.576Z,1293
2018-06-14T10:34:33.637Z,1256
2018-06-14T10:35:33.660Z,1054
2018-06-14T10:36:33.574Z,449
2018-06-14T10:37:33.638Z,1267
2018-06-14T10:38:33.643Z,1091
2018-06-14T10:39:33.568Z,982
2018-06-14T10:40:33.642Z,1136
2018-06-14T10:41:33.637Z,1199
2018-06-14T10:42:33.548Z,1184
2018-06-14T10:43:33.639Z,1210
2018-06-14T10:44:33.596Z,1179
2018-06-14T10:45:33.633Z,1160
2018-06-14T10:46:33.551Z,1154
2018-06-14T10:47:33.620Z,1152
2018-06-14T10:48:33.614Z,1146
2018-06-14T10:49:33.613Z,1144
2018-06-14T10:50:33.692Z,1116
2018-06-14T10:51:33.617Z,1106
2018-06-14T10:52:33.559Z,1124
2018-06-14T10:53:33.625Z,1130
2018-06-14T10:54:33.618Z,1133
2018-06-14T10:55:33.669Z,1137
2018-06-14T10:56:33.667Z,1131
2018-06-14T10:57:33.620Z,1146
2018-06-14T10:58:33.702Z,1140
2018-06-14T10:59:33.563Z,1117
2018-06-14T11:00:33.627Z,1160
2018-06-14T11:01:33.619Z,1171
2018-06-14T11:02:33.690Z,1188
2018-06-14T11:03:33.559Z,362
2018-06-14T11:04:33.579Z,1243
2018-06-14T11:05:33.698Z,1214
2018-06-14T11:06:33.566Z,1182
2018-06-14T11:07:33.597Z,1150
2018-06-14T11:08:33.597Z,1108
2018-06-14T11:09:33.532Z,1099
2018-06-14T11:10:33.652Z,1105
2018-06-14T11:11:33.565Z,1053
2018-06-14T11:12:33.535Z,1162
2018-06-14T11:13:33.616Z,1113
2018-06-14T11:14:33.551Z,1110
2018-06-14T11:15:33.535Z,1152
2018-06-14T11:16:33.534Z,1116
2018-06-14T11:17:33.665Z,1109
2018-06-14T11:18:33.635Z,1052
2018-06-14T11:19:33.669Z,1102
2018-06-14T11:20:33.671Z,1131
2018-06-14T11:21:33.671Z,915
2018-06-14T11:22:33.692Z,828
2018-06-14T11:23:33.689Z,1171
2018-06-14T11:24:33.637Z,1148
2018-06-14T11:25:33.710Z,1160
2018-06-14T11:26:33.644Z,1159
2018-06-14T11:27:33.671Z,1162
2018-06-14T11:28:33.624Z,1142
2018-06-14T11:29:33.669Z,1070
2018-06-14T11:30:33.607Z,1086
2018-06-14T11:31:33.678Z,1115
2018-06-14T11:32:33.677Z,1128
2018-06-14T11:33:33.696Z,1145
2018-06-14T11:34:33.707Z,1134
2018-06-14T11:35:33.618Z,1106
2018-06-14T11:36:33.694Z,1069
2018-06-14T11:37:33.678Z,1109
2018-06-14T11:38:33.713Z,954
2018-06-14T11:39:33.728Z,1087
2018-06-14T11:40:33.588Z,1220
2018-06-14T11:41:33.655Z,1245
2018-06-14T11:42:33.648Z,952
2018-06-14T11:43:33.716Z,1062
2018-06-14T11:44:33.648Z,685
2018-06-14T11:45:33.664Z,1190
2018-06-14T11:46:33.717Z,305
2018-06-14T11:47:33.690Z,1112
2018-06-14T11:48:33.721Z,1189
2018-06-14T11:49:33.642Z,787
2018-06-14T11:50:33.722Z,1162
2018-06-14T11:51:33.690Z,1145
2018-06-14T11:52:33.646Z,1178
2018-06-14T11:53:33.629Z,797
2018-06-14T11:54:33.628Z,1141
2018-06-14T11:55:33.666Z,1186
2018-06-14T11:56:33.655Z,1150
2018-06-14T11:57:33.652Z,1139
2018-06-14T11:58:33.627Z,1110
2018-06-14T11:59:33.694Z,1002
2018-06-14T12:00:33.627Z,1106
2018-06-14T12:01:33.708Z,1109
2018-06-14T12:02:33.633Z,1121
2018-06-14T12:03:33.585Z,1118
2018-06-14T12:04:33.696Z,1060
2018-06-14T12:05:33.632Z,1131
2018-06-14T12:06:33.632Z,1154
2018-06-14T12:07:33.624Z,1004
2018-06-14T12:08:33.685Z,1116
2018-06-14T12:09:33.678Z,1121
2018-06-14T12:10:33.743Z,1104
2018-06-14T12:11:33.611Z,1098
2018-06-14T12:12:33.726Z,1094
2018-06-14T12:13:33.610Z,1096
2018-06-14T12:14:33.735Z,1011
2018-06-14T12:15:33.687Z,1113
2018-06-14T12:16:33.730Z,1096
2018-06-14T12:17:33.706Z,1058
2018-06-14T12:18:33.656Z,1089
2018-06-14T12:19:33.641Z,1102
2018-06-14T12:20:33.713Z,1087
2018-06-14T12:21:33.610Z,1070
2018-06-14T12:22:33.647Z,1080
2018-06-14T12:23:33.710Z,1075
2018-06-14T12:24:33.647Z,1049
2018-06-14T12:25:33.714Z,1097
2018-06-14T12:26:33.652Z,1094
2018-06-14T12:27:33.647Z,1083
2018-06-14T12:28:33.716Z,1101
2018-06-14T12:29:33.649Z,1113
2018-06-14T12:30:33.650Z,1099
2018-06-14T12:31:33.713Z,1106
2018-06-14T12:32:33.648Z,1102
2018-06-14T12:33:33.718Z,1099
2018-06-14T12:34:33.652Z,1106
2018-06-14T12:35:33.721Z,1104
2018-06-14T12:36:33.656Z,1096
2018-06-14T12:37:33.756Z,1081
2018-06-14T12:38:33.592Z,1089
2018-06-14T12:39:33.703Z,1111
2018-06-14T12:40:33.655Z,1107
2018-06-14T12:41:33.713Z,1101
2018-06-14T12:42:33.708Z,1076
2018-06-14T12:43:33.719Z,1053
2018-06-14T12:44:33.614Z,1050
2018-06-14T12:45:33.717Z,1076
2018-06-14T12:46:33.649Z,1053
2018-06-14T12:47:33.728Z,1044
2018-06-14T12:48:33.660Z,1069
2018-06-14T12:49:33.740Z,1050
2018-06-14T12:50:33.663Z,1048
2018-06-14T12:51:33.698Z,1062
2018-06-14T12:52:33.664Z,1068
2018-06-14T12:53:33.733Z,1070
2018-06-14T12:54:33.665Z,1065
2018-06-14T12:55:33.665Z,1073
2018-06-14T12:56:33.732Z,1073
2018-06-14T12:57:33.734Z,1078
2018-06-14T12:58:33.728Z,1067
2018-06-14T12:59:33.601Z,1066
2018-06-14T13:00:33.729Z,1049
2018-06-14T13:01:33.637Z,1040
2018-06-14T13:02:33.644Z,1027
2018-06-14T13:03:33.600Z,1025
2018-06-14T13:04:33.604Z,1030
2018-06-14T13:05:33.726Z,1031
2018-06-14T13:06:33.623Z,1032
2018-06-14T13:07:33.647Z,1013
2018-06-14T13:08:33.715Z,1013
2018-06-14T13:09:33.674Z,1031
2018-06-14T13:10:33.730Z,1037
2018-06-14T13:11:33.719Z,1042
2018-06-14T13:12:33.679Z,1027
2018-06-14T13:13:33.677Z,1014
2018-06-14T13:14:33.679Z,1044
2018-06-14T13:15:33.681Z,701
2018-06-14T13:16:33.631Z,205
2018-06-14T13:17:33.729Z,360
2018-06-14T13:18:33.679Z,1096
2018-06-14T13:19:33.750Z,1054
2018-06-14T13:20:33.682Z,1030
2018-06-14T13:21:33.749Z,1034
2018-06-14T13:22:33.747Z,1023
2018-06-14T13:23:33.691Z,977
2018-06-14T13:24:33.751Z,961
2018-06-14T13:25:33.809Z,979
2018-06-14T13:26:33.754Z,968
2018-06-14T13:27:33.758Z,985
2018-06-14T13:28:33.789Z,1002
2018-06-14T13:29:33.675Z,995
2018-06-14T13:30:33.714Z,978
2018-06-14T13:31:33.791Z,969
2018-06-14T13:32:33.663Z,969
2018-06-14T13:33:33.656Z,950
2018-06-14T13:34:33.770Z,982
2018-06-14T13:35:33.735Z,987
2018-06-14T13:36:33.731Z,965
2018-06-14T13:37:33.755Z,961
2018-06-14T13:38:33.783Z,954
2018-06-14T13:39:33.684Z,951
2018-06-14T13:40:33.794Z,941
2018-06-14T13:41:33.787Z,946
2018-06-14T13:42:33.669Z,958
2018-06-14T13:43:33.719Z,964
2018-06-14T13:44:33.727Z,956
2018-06-14T13:45:33.669Z,959
2018-06-14T13:46:33.797Z,969
2018-06-14T13:47:33.739Z,1002
2018-06-14T13:48:33.792Z,998
2018-06-14T13:49:33.736Z,883
2018-06-14T13:51:33.768Z,970
2018-06-14T13:52:33.784Z,994
2018-06-14T13:53:33.808Z,990
2018-06-14T13:54:33.673Z,989
2018-06-14T13:55:33.735Z,888
2018-06-14T13:56:33.708Z,954
2018-06-14T13:57:33.804Z,982